createdAt,value
2022-10-14T00:01:32.934Z,23.90
2022-10-14T00:04:00.343Z,23.90
2022-10-14T00:06:29.607Z,23.90
2022-10-14T00:08:56.737Z,23.90
2022-10-14T00:11:26.209Z,23.90
2022-10-14T00:13:58.372Z,23.90
2022-10-14T00:16:28.841Z,24.00
2022-10-14T00:18:56.017Z,23.90
2022-10-14T00:21:22.918Z,23.90
2022-10-14T00:23:49.838Z,23.90
2022-10-14T00:26:20.734Z,23.80
2022-10-14T00:28:47.475Z,23.90
2022-10-14T00:31:15.044Z,23.90
2022-10-14T00:33:42.264Z,23.80
2022-10-14T00:36:11.554Z,23.90
2022-10-14T00:38:38.216Z,23.90
2022-10-14T00:41:05.202Z,23.80
2022-10-14T00:44:01.983Z,23.90
2022-10-14T00:46:31.625Z,23.90
2022-10-14T00:49:01.734Z,23.90
2022-10-14T00:51:28.680Z,23.90
2022-10-14T00:53:55.511Z,23.90
2022-10-14T00:56:29.141Z,23.80
2022-10-14T00:58:56.608Z,23.80
2022-10-14T01:01:23.747Z,23.80
2022-10-14T01:03:50.589Z,23.80
2022-10-14T01:06:35.800Z,23.80
2022-10-14T01:09:20.033Z,23.80
2022-10-14T01:12:27.570Z,23.80
2022-10-14T01:15:05.002Z,23.80
2022-10-14T01:18:05.806Z,23.80
2022-10-14T01:20:54.444Z,23.80
2022-10-14T01:23:47.446Z,23.80
2022-10-14T01:26:38.012Z,23.80
2022-10-14T01:29:26.209Z,23.90
2022-10-14T01:32:04.111Z,23.80
2022-10-14T01:34:44.187Z,23.70
2022-10-14T01:37:24.277Z,23.80
2022-10-14T01:40:02.580Z,23.80
2022-10-14T01:42:34.015Z,23.80
2022-10-14T01:45:07.408Z,23.80
2022-10-14T01:47:35.641Z,23.70
2022-10-14T01:50:07.600Z,23.80
2022-10-14T01:52:43.380Z,23.80
2022-10-14T01:55:17.253Z,23.80
2022-10-14T01:57:45.578Z,23.80
2022-10-14T02:00:13.058Z,23.70
2022-10-14T02:02:39.812Z,23.80
2022-10-14T02:05:13.343Z,23.80
2022-10-14T02:07:51.278Z,23.80
2022-10-14T02:10:33.213Z,23.80
2022-10-14T02:13:27.942Z,23.70
2022-10-14T02:16:03.196Z,23.70
2022-10-14T02:18:38.917Z,23.60
2022-10-14T02:21:26.646Z,23.40
2022-10-14T02:24:05.597Z,23.40
2022-10-14T02:26:33.984Z,23.40
2022-10-14T02:29:02.305Z,23.40
2022-10-14T02:31:30.553Z,23.50
2022-10-14T02:34:02.569Z,23.50
2022-10-14T02:36:30.145Z,23.50
2022-10-14T02:39:00.503Z,23.50
2022-10-14T02:41:34.491Z,23.60
2022-10-14T02:44:01.404Z,23.50
2022-10-14T02:46:29.108Z,23.50
2022-10-14T02:48:55.798Z,23.50
2022-10-14T02:51:22.546Z,23.50
2022-10-14T02:53:49.230Z,23.40
2022-10-14T02:56:16.974Z,23.50
2022-10-14T02:58:43.581Z,23.40
2022-10-14T03:01:10.758Z,23.50
2022-10-14T03:03:37.356Z,23.40
2022-10-14T03:06:04.140Z,23.40
2022-10-14T03:08:30.786Z,23.50
2022-10-14T03:10:57.512Z,23.40
2022-10-14T03:13:24.138Z,23.30
2022-10-14T03:15:50.926Z,23.40
2022-10-14T03:18:17.817Z,23.40
2022-10-14T03:20:45.376Z,23.30
2022-10-14T03:23:13.316Z,23.30
2022-10-14T03:25:40.462Z,23.30
2022-10-14T03:28:07.138Z,23.20
2022-10-14T03:30:33.785Z,23.20
2022-10-14T03:33:00.418Z,23.30
2022-10-14T03:35:27.028Z,23.30
2022-10-14T03:37:54.814Z,23.20
2022-10-14T03:40:22.557Z,23.20
2022-10-14T03:42:49.660Z,23.20
2022-10-14T03:45:16.795Z,23.30
2022-10-14T03:47:43.422Z,23.20
2022-10-14T03:50:10.389Z,23.20
2022-10-14T03:52:37.112Z,23.30
2022-10-14T03:55:03.991Z,23.30
2022-10-14T03:57:30.597Z,23.20
2022-10-14T03:59:57.400Z,23.30
2022-10-14T04:02:24.463Z,23.30
2022-10-14T04:04:51.358Z,23.30
2022-10-14T04:07:18.024Z,23.30
2022-10-14T04:09:44.739Z,23.50
2022-10-14T04:12:11.571Z,23.30
2022-10-14T04:14:38.218Z,23.30
2022-10-14T04:17:04.904Z,23.40
2022-10-14T04:19:31.832Z,23.40
2022-10-14T04:21:58.519Z,23.30
2022-10-14T04:24:25.234Z,23.30
2022-10-14T04:26:52.617Z,23.40
2022-10-14T04:29:19.546Z,23.30
2022-10-14T04:31:46.296Z,23.30
2022-10-14T04:34:13.360Z,23.30
2022-10-14T04:36:40.440Z,23.30
2022-10-14T04:39:07.084Z,23.20
2022-10-14T04:41:33.841Z,23.40
2022-10-14T04:44:00.467Z,23.20
2022-10-14T04:46:27.209Z,23.20
2022-10-14T04:48:54.019Z,23.20
2022-10-14T04:51:20.794Z,23.20
2022-10-14T04:53:47.445Z,23.20
2022-10-14T04:56:14.306Z,23.20
2022-10-14T04:58:41.038Z,23.20
2022-10-14T05:01:07.881Z,23.20
2022-10-14T05:03:34.571Z,23.20
2022-10-14T05:06:01.274Z,23.20
2022-10-14T05:08:27.971Z,23.10
2022-10-14T05:10:54.618Z,23.20
2022-10-14T05:13:21.319Z,23.30
2022-10-14T05:15:48.247Z,23.10
2022-10-14T05:18:15.452Z,23.10
2022-10-14T05:20:42.102Z,23.10
2022-10-14T05:23:08.918Z,23.10
2022-10-14T05:25:35.760Z,22.90
2022-10-14T05:28:02.552Z,23.00
2022-10-14T05:30:34.415Z,23.10
2022-10-14T05:33:01.543Z,23.00
2022-10-14T05:35:53.708Z,23.10
2022-10-14T05:38:15.205Z,23.00
2022-10-14T05:40:41.957Z,23.00
2022-10-14T05:43:08.586Z,23.10
2022-10-14T05:45:35.350Z,23.00
2022-10-14T05:48:02.076Z,23.00
2022-10-14T05:50:28.715Z,23.00
2022-10-14T05:52:55.535Z,23.00
2022-10-14T05:55:22.225Z,23.00
2022-10-14T05:57:49.012Z,23.00
2022-10-14T06:00:19.652Z,22.90
2022-10-14T06:02:50.259Z,23.00
2022-10-14T06:05:17.156Z,22.90
2022-10-14T06:07:43.890Z,23.00
2022-10-14T06:10:11.352Z,23.00
2022-10-14T06:12:38.947Z,22.90
2022-10-14T06:15:06.106Z,23.00
2022-10-14T06:17:32.827Z,22.90
2022-10-14T06:19:59.575Z,22.80
2022-10-14T06:22:27.789Z,22.80
2022-10-14T06:24:54.894Z,22.80
2022-10-14T06:27:21.849Z,22.80
2022-10-14T06:29:48.902Z,22.80
2022-10-14T06:32:15.621Z,22.90
2022-10-14T06:34:42.289Z,22.80
2022-10-14T06:37:09.030Z,22.80
2022-10-14T06:39:35.685Z,22.80
2022-10-14T06:42:02.951Z,22.80
2022-10-14T06:44:29.604Z,22.90
2022-10-14T06:46:56.309Z,22.80
2022-10-14T06:49:23.002Z,22.80
2022-10-14T06:51:49.801Z,22.80
2022-10-14T06:54:16.654Z,22.70
2022-10-14T06:56:43.407Z,22.80
2022-10-14T06:59:10.047Z,22.70
2022-10-14T07:01:36.854Z,22.70
2022-10-14T07:04:04.560Z,22.80
2022-10-14T07:06:31.641Z,22.70
2022-10-14T07:08:58.552Z,22.70
2022-10-14T07:11:25.221Z,22.80
2022-10-14T07:13:51.826Z,22.70
2022-10-14T07:16:18.597Z,22.70
2022-10-14T07:18:45.200Z,22.70
2022-10-14T07:21:11.833Z,22.70
2022-10-14T07:23:38.435Z,22.70
2022-10-14T07:26:05.314Z,22.60
2022-10-14T07:28:34.025Z,22.70
2022-10-14T07:31:07.203Z,22.70
2022-10-14T07:36:05.952Z,23.00
2022-10-14T07:38:32.784Z,22.60
2022-10-14T07:41:16.812Z,22.70
2022-10-14T07:43:48.799Z,22.70
2022-10-14T07:46:17.012Z,22.70
2022-10-14T07:48:56.675Z,22.60
2022-10-14T07:51:24.324Z,22.60
2022-10-14T07:53:52.803Z,22.60
2022-10-14T07:56:19.505Z,22.80
2022-10-14T07:58:46.534Z,22.60
2022-10-14T08:01:15.464Z,22.60
2022-10-14T08:03:46.873Z,22.60
2022-10-14T08:06:14.408Z,22.60
2022-10-14T08:08:42.303Z,22.60
2022-10-14T08:11:15.437Z,22.60
2022-10-14T08:13:46.029Z,22.60
2022-10-14T08:16:23.244Z,22.60
2022-10-14T08:18:51.036Z,22.50
2022-10-14T08:21:19.010Z,22.60
2022-10-14T08:23:45.736Z,22.70
2022-10-14T08:26:33.757Z,22.60
2022-10-14T08:29:02.316Z,22.60
2022-10-14T08:31:30.103Z,22.60
2022-10-14T08:33:57.100Z,22.60
2022-10-14T08:36:23.887Z,22.60
2022-10-14T08:38:53.669Z,22.60
2022-10-14T08:41:23.358Z,22.50
2022-10-14T08:44:11.034Z,22.50
2022-10-14T08:46:52.655Z,22.50
2022-10-14T08:49:23.862Z,22.60
2022-10-14T08:52:12.753Z,22.60
2022-10-14T08:54:47.120Z,22.50
2022-10-14T08:57:23.523Z,22.50
2022-10-14T08:59:50.938Z,22.50
2022-10-14T09:02:27.843Z,22.50
2022-10-14T09:04:54.670Z,22.50
2022-10-14T09:07:22.097Z,22.50
2022-10-14T09:09:53.266Z,22.50
2022-10-14T09:12:29.704Z,22.60
2022-10-14T09:15:30.171Z,22.60
2022-10-14T09:18:07.961Z,22.50
2022-10-14T09:20:34.610Z,22.50
2022-10-14T09:23:04.256Z,22.50
2022-10-14T09:25:34.838Z,22.40
2022-10-14T09:28:01.962Z,22.60
2022-10-14T09:30:34.646Z,22.60
2022-10-14T09:33:01.465Z,22.70
2022-10-14T09:35:33.429Z,22.50
2022-10-14T09:38:00.113Z,22.50
2022-10-14T09:40:39.482Z,22.40
2022-10-14T09:43:08.852Z,22.50
2022-10-14T09:45:58.969Z,22.40
2022-10-14T09:48:39.621Z,22.40
2022-10-14T09:51:18.723Z,22.50
2022-10-14T09:53:52.059Z,22.60
2022-10-14T09:56:32.029Z,22.50
2022-10-14T09:58:59.405Z,22.40
2022-10-14T10:01:37.656Z,22.50
2022-10-14T10:04:41.636Z,22.50
2022-10-14T10:07:30.644Z,22.40
2022-10-14T10:09:59.502Z,22.40
2022-10-14T10:12:34.861Z,22.40
2022-10-14T10:15:05.501Z,22.50
2022-10-14T10:17:35.919Z,22.40
2022-10-14T10:20:33.140Z,22.50
2022-10-14T10:23:25.155Z,22.40
2022-10-14T10:25:52.730Z,22.40
2022-10-14T10:28:31.642Z,22.40
2022-10-14T10:31:13.684Z,22.50
2022-10-14T10:33:54.040Z,22.50
2022-10-14T10:36:34.449Z,22.50
2022-10-14T10:39:35.322Z,22.50
2022-10-14T10:42:16.884Z,22.50
2022-10-14T10:45:02.772Z,22.40
2022-10-14T10:47:45.506Z,22.40
2022-10-14T10:50:40.318Z,22.40
2022-10-14T10:53:13.753Z,22.30
2022-10-14T10:55:58.619Z,22.40
2022-10-14T10:58:35.295Z,22.10
2022-10-14T11:01:06.116Z,21.90
2022-10-14T11:04:15.897Z,21.70
2022-10-14T11:07:28.029Z,21.90
2022-10-14T11:10:40.698Z,21.90
2022-10-14T11:13:47.295Z,22.00
2022-10-14T11:16:27.470Z,22.00
2022-10-14T11:19:17.844Z,22.10
2022-10-14T11:21:54.183Z,22.10
2022-10-14T11:24:39.625Z,22.20
2022-10-14T11:27:41.670Z,22.20
2022-10-14T11:30:16.125Z,22.10
2022-10-14T11:33:29.973Z,22.10
2022-10-14T11:36:20.006Z,22.00
2022-10-14T11:39:03.017Z,21.90
2022-10-14T11:41:48.777Z,21.60
2022-10-14T11:44:32.677Z,21.50
2022-10-14T11:47:05.748Z,21.50
2022-10-14T11:49:58.269Z,21.40
2022-10-14T11:52:29.705Z,21.40
2022-10-14T11:55:17.941Z,21.50
2022-10-14T11:57:54.925Z,21.60
2022-10-14T12:00:42.632Z,21.60
2022-10-14T12:03:12.072Z,21.70
2022-10-14T12:05:54.289Z,21.80
2022-10-14T12:08:26.979Z,22.00
2022-10-14T12:11:23.279Z,22.10
2022-10-14T12:13:55.020Z,21.80
2022-10-14T12:16:24.047Z,21.70
2022-10-14T12:18:55.012Z,21.50
2022-10-14T12:21:32.391Z,21.50
2022-10-14T12:24:06.426Z,21.30
2022-10-14T12:26:53.258Z,21.10
2022-10-14T12:29:40.331Z,21.10
2022-10-14T12:32:19.594Z,21.30
2022-10-14T12:34:54.884Z,21.50
2022-10-14T12:37:27.404Z,21.60
2022-10-14T12:40:03.420Z,21.70
2022-10-14T12:42:32.334Z,21.80
2022-10-14T12:45:02.466Z,22.00
2022-10-14T12:47:34.936Z,22.00
2022-10-14T12:50:26.741Z,22.00
2022-10-14T12:52:58.140Z,22.10
2022-10-14T12:55:29.047Z,22.30
2022-10-14T12:58:02.155Z,22.30
2022-10-14T13:00:39.212Z,22.10
2022-10-14T13:03:20.686Z,22.30
2022-10-14T13:05:48.043Z,22.30
2022-10-14T13:08:20.804Z,22.40
2022-10-14T13:10:50.351Z,22.40
2022-10-14T13:13:38.816Z,22.40
2022-10-14T13:16:26.643Z,22.50
2022-10-14T13:18:55.885Z,22.50
2022-10-14T13:21:34.345Z,22.50
2022-10-14T13:24:28.604Z,22.70
2022-10-14T13:26:55.224Z,22.60
2022-10-14T13:29:38.479Z,22.50
2022-10-14T13:32:39.269Z,22.60
2022-10-14T13:35:43.756Z,22.60
2022-10-14T13:38:17.680Z,22.60
2022-10-14T13:40:51.776Z,22.60
2022-10-14T13:43:42.153Z,22.70
2022-10-14T13:46:13.260Z,22.70
2022-10-14T13:48:43.677Z,22.70
2022-10-14T13:51:24.362Z,22.70
2022-10-14T13:54:25.254Z,22.60
2022-10-14T14:00:39.630Z,22.50
2022-10-14T14:02:49.065Z,22.60
2022-10-14T14:05:20.579Z,22.60
2022-10-14T14:10:57.310Z,22.60
2022-10-14T14:13:27.655Z,22.60
2022-10-14T14:15:56.057Z,22.60
2022-10-14T14:18:49.224Z,22.60
2022-10-14T14:21:27.696Z,22.60
2022-10-14T14:23:59.269Z,22.50
2022-10-14T14:26:33.393Z,22.60
2022-10-14T14:29:03.536Z,22.50
2022-10-14T14:32:01.421Z,22.50
2022-10-14T14:34:20.401Z,22.60
2022-10-14T14:36:55.220Z,22.50
2022-10-14T14:39:28.253Z,22.50
2022-10-14T14:41:57.760Z,22.50
2022-10-14T14:44:27.121Z,22.60
2022-10-14T14:46:58.207Z,22.60
2022-10-14T14:49:31.678Z,22.60
2022-10-14T14:51:59.308Z,22.60
2022-10-14T14:54:27.312Z,22.70
2022-10-14T14:56:59.774Z,22.60
2022-10-14T14:59:38.501Z,22.70
2022-10-14T15:02:18.005Z,22.70
2022-10-14T15:04:50.477Z,22.80
2022-10-14T15:07:21.586Z,22.70
2022-10-14T15:09:52.536Z,22.70
2022-10-14T15:12:25.759Z,22.70
2022-10-14T15:15:02.993Z,22.70
2022-10-14T15:17:35.534Z,22.80
2022-10-14T15:20:05.238Z,22.80
2022-10-14T15:22:40.379Z,22.70
2022-10-14T15:25:10.127Z,22.80
2022-10-14T15:27:36.730Z,22.70
2022-10-14T15:30:22.739Z,22.70
2022-10-14T15:32:51.949Z,22.70
2022-10-14T15:35:20.898Z,22.70
2022-10-14T15:37:48.987Z,22.70
2022-10-14T15:40:18.700Z,22.70
2022-10-14T15:42:46.610Z,22.70
2022-10-14T15:45:13.600Z,22.70
2022-10-14T15:47:40.805Z,22.70
2022-10-14T15:50:14.693Z,22.80
2022-10-14T15:52:41.351Z,22.70
2022-10-14T15:55:26.352Z,22.70
2022-10-14T15:57:53.286Z,22.80
2022-10-14T16:00:22.487Z,22.80
2022-10-14T16:02:53.533Z,22.80
2022-10-14T16:05:21.212Z,22.80
2022-10-14T16:07:48.495Z,22.80
2022-10-14T16:10:18.501Z,22.90
2022-10-14T16:12:45.402Z,22.90
2022-10-14T16:15:29.110Z,22.90
2022-10-14T16:17:56.251Z,23.00
2022-10-14T16:20:23.142Z,23.00
2022-10-14T16:22:49.898Z,23.00
2022-10-14T16:25:33.446Z,23.00
2022-10-14T16:28:00.566Z,23.00
2022-10-14T16:30:28.113Z,23.00
2022-10-14T16:32:55.407Z,23.10
2022-10-14T16:35:22.160Z,23.10
2022-10-14T16:37:48.963Z,23.10
2022-10-14T16:40:15.754Z,23.20
2022-10-14T16:42:42.355Z,23.10
2022-10-14T16:45:09.465Z,23.10
2022-10-14T16:47:36.068Z,23.20
2022-10-14T16:50:02.879Z,23.20
2022-10-14T16:52:49.732Z,23.20
2022-10-14T16:55:17.822Z,23.10
2022-10-14T16:57:44.538Z,23.20
2022-10-14T17:00:12.093Z,23.20
2022-10-14T17:02:38.786Z,22.90
2022-10-14T17:05:05.837Z,22.60
2022-10-14T17:07:33.784Z,22.30
2022-10-14T17:10:00.498Z,22.10
2022-10-14T17:12:27.597Z,21.90
2022-10-14T17:14:54.234Z,21.90
2022-10-14T17:17:23.696Z,21.90
2022-10-14T17:19:53.775Z,21.80
2022-10-14T17:22:21.680Z,21.50
2022-10-14T17:24:49.329Z,21.30
2022-10-14T17:27:19.480Z,21.30
2022-10-14T17:29:46.508Z,21.00
2022-10-14T17:32:13.165Z,20.80
2022-10-14T17:34:39.788Z,20.90
2022-10-14T17:39:39.479Z,21.20
2022-10-14T17:42:06.166Z,21.50
2022-10-14T17:44:33.220Z,21.70
2022-10-14T17:47:01.222Z,21.90
2022-10-14T17:49:29.330Z,21.90
2022-10-14T17:51:55.940Z,22.00
2022-10-14T17:54:22.665Z,22.00
2022-10-14T17:56:49.290Z,22.00
2022-10-14T17:59:16.086Z,22.20
2022-10-14T18:02:02.566Z,22.20
2022-10-14T18:04:29.395Z,22.10
2022-10-14T18:06:56.082Z,22.30
2022-10-14T18:09:22.722Z,22.20
2022-10-14T18:14:38.058Z,22.30
2022-10-14T18:17:05.115Z,22.30
2022-10-14T18:19:31.989Z,22.30
2022-10-14T18:21:58.675Z,22.00
2022-10-14T18:24:25.785Z,21.70
2022-10-14T18:26:53.205Z,21.70
2022-10-14T18:29:20.198Z,21.70
2022-10-14T18:31:49.132Z,21.70
2022-10-14T18:34:15.841Z,21.70
2022-10-14T18:36:42.833Z,21.80
2022-10-14T18:39:11.594Z,21.90
2022-10-14T18:41:38.716Z,22.00
2022-10-14T18:44:06.062Z,22.10
2022-10-14T18:46:35.905Z,22.10
2022-10-14T18:49:06.274Z,22.10
2022-10-14T18:51:38.441Z,22.20
2022-10-14T18:54:13.079Z,22.30
2022-10-14T18:56:39.858Z,22.30
2022-10-14T18:59:09.766Z,22.40
2022-10-14T19:01:38.096Z,22.40
2022-10-14T19:04:06.814Z,22.40
2022-10-14T19:06:34.662Z,22.40
2022-10-14T19:09:02.636Z,22.50
2022-10-14T19:11:30.843Z,22.50
2022-10-14T19:13:59.118Z,22.50
2022-10-14T19:16:29.051Z,22.60
2022-10-14T19:18:57.957Z,22.60
2022-10-14T19:24:41.420Z,22.80
2022-10-14T19:27:08.053Z,22.40
2022-10-14T19:29:34.704Z,21.70
2022-10-14T19:32:01.370Z,21.30
2022-10-14T19:34:28.141Z,21.10
2022-10-14T19:36:54.779Z,20.90
2022-10-14T19:39:21.511Z,20.70
2022-10-14T19:41:48.354Z,20.60
2022-10-14T19:44:16.204Z,20.60
2022-10-14T19:46:44.462Z,20.50
2022-10-14T19:49:13.349Z,20.50
2022-10-14T19:51:40.107Z,20.50
2022-10-14T19:54:06.922Z,20.50
2022-10-14T19:56:33.621Z,20.50
2022-10-14T19:59:01.629Z,20.50
2022-10-14T20:01:30.165Z,20.70
2022-10-14T20:03:58.639Z,20.40
2022-10-14T20:06:25.358Z,20.40
2022-10-14T20:08:52.006Z,20.50
2022-10-14T20:11:22.277Z,20.30
2022-10-14T20:13:49.013Z,20.30
2022-10-14T20:16:15.989Z,20.40
2022-10-14T20:18:43.205Z,20.40
2022-10-14T20:21:13.278Z,20.50
2022-10-14T20:23:40.447Z,20.40
2022-10-14T20:26:10.778Z,20.40
2022-10-14T20:28:38.718Z,20.50
2022-10-14T20:31:25.303Z,20.50
2022-10-14T20:33:51.995Z,20.50
2022-10-14T20:36:20.820Z,20.60
2022-10-14T20:38:48.192Z,20.60
2022-10-14T20:41:19.108Z,20.50
2022-10-14T20:43:46.210Z,20.60
2022-10-14T20:46:13.064Z,20.50
2022-10-14T20:48:39.888Z,20.50
2022-10-14T20:51:08.034Z,20.50
2022-10-14T20:53:35.123Z,20.50
2022-10-14T20:56:07.559Z,20.50
2022-10-14T20:58:35.055Z,20.30
2022-10-14T21:01:19.932Z,20.40
2022-10-14T21:03:47.654Z,20.40
2022-10-14T21:06:17.917Z,20.60
2022-10-14T21:08:45.101Z,20.40
2022-10-14T21:11:15.236Z,20.50
2022-10-14T21:13:55.063Z,20.40
2022-10-14T21:16:31.691Z,20.40
2022-10-14T21:19:06.913Z,20.40
2022-10-14T21:21:49.161Z,20.40
2022-10-14T21:24:17.456Z,20.50
2022-10-14T21:26:45.671Z,20.40
2022-10-14T21:29:12.512Z,20.40
2022-10-14T21:31:39.236Z,20.40
2022-10-14T21:34:06.668Z,20.40
2022-10-14T21:36:34.999Z,20.40
2022-10-14T21:39:12.881Z,20.40
2022-10-14T21:41:40.696Z,20.40
2022-10-14T21:44:08.650Z,20.40
2022-10-14T21:46:36.271Z,20.40
2022-10-14T21:49:03.313Z,20.50
2022-10-14T21:51:30.869Z,20.50
2022-10-14T21:53:58.207Z,20.50
2022-10-14T21:56:26.091Z,20.40
2022-10-14T21:58:53.213Z,20.40
2022-10-14T22:01:22.421Z,20.30
2022-10-14T22:04:00.959Z,20.40
2022-10-14T22:06:28.037Z,20.40
2022-10-14T22:08:56.869Z,20.40
2022-10-14T22:11:29.478Z,20.30
2022-10-14T22:13:57.444Z,20.30
2022-10-14T22:16:24.595Z,20.20
2022-10-14T22:18:53.538Z,20.30
2022-10-14T22:21:23.178Z,20.20
2022-10-14T22:23:50.700Z,20.20
2022-10-14T22:26:20.408Z,20.20
2022-10-14T22:28:47.561Z,20.20
2022-10-14T22:31:16.172Z,20.20
2022-10-14T22:33:43.453Z,20.10
2022-10-14T22:36:13.472Z,20.10
2022-10-14T22:38:42.430Z,20.20
2022-10-14T22:41:10.492Z,20.20
2022-10-14T22:43:37.958Z,20.10
2022-10-14T22:46:08.978Z,20.20
2022-10-14T22:48:36.558Z,20.10
2022-10-14T22:51:14.083Z,20.10
2022-10-14T22:53:41.814Z,20.20
2022-10-14T22:56:12.390Z,20.20
2022-10-14T22:58:39.061Z,20.20
2022-10-14T23:01:11.030Z,20.30
2022-10-14T23:03:38.038Z,20.40
2022-10-14T23:06:06.370Z,20.10
2022-10-14T23:08:34.180Z,20.40
2022-10-14T23:11:01.798Z,20.30
2022-10-14T23:13:29.199Z,20.30
2022-10-14T23:16:04.683Z,20.40
2022-10-14T23:18:34.964Z,20.30
2022-10-14T23:21:13.358Z,20.40
2022-10-14T23:23:40.536Z,20.30
2022-10-14T23:26:15.956Z,20.20
2022-10-14T23:28:43.339Z,20.30
2022-10-14T23:31:12.557Z,20.20
2022-10-14T23:33:39.756Z,20.20
2022-10-14T23:36:09.225Z,20.20
2022-10-14T23:38:36.190Z,20.10
2022-10-14T23:41:04.432Z,20.20
2022-10-14T23:43:31.308Z,20.10
2022-10-14T23:45:58.583Z,20.10
2022-10-14T23:48:25.817Z,20.10
2022-10-14T23:50:52.634Z,20.10
2022-10-14T23:53:19.282Z,20.20
2022-10-14T23:55:45.935Z,20.10
2022-10-14T23:58:12.820Z,20.10
